sensor_id;sensor_type;location;lat;lon;timestamp;P1;durP1;ratioP1;P2;durP2;ratioP2
54831;SDS011;40730;53.068;6.572;2023-08-20T00:02:19;9.55;;;2.45;;
54831;SDS011;40730;53.068;6.572;2023-08-20T00:04:49;9.60;;;2.70;;
54831;SDS011;40730;53.068;6.572;2023-08-20T00:07:15;10.88;;;2.60;;
54831;SDS011;40730;53.068;6.572;2023-08-20T00:09:43;6.95;;;2.38;;
54831;SDS011;40730;53.068;6.572;2023-08-20T00:12:09;10.90;;;3.30;;
54831;SDS011;40730;53.068;6.572;2023-08-20T00:19:49;6.28;;;2.42;;
54831;SDS011;40730;53.068;6.572;2023-08-20T00:22:15;7.00;;;2.67;;
54831;SDS011;40730;53.068;6.572;2023-08-20T00:24:42;11.00;;;3.10;;
54831;SDS011;40730;53.068;6.572;2023-08-20T00:27:08;7.05;;;2.30;;
54831;SDS011;40730;53.068;6.572;2023-08-20T00:29:34;4.50;;;1.23;;
54831;SDS011;40730;53.068;6.572;2023-08-20T00:31:59;6.25;;;1.85;;
54831;SDS011;40730;53.068;6.572;2023-08-20T00:34:25;7.68;;;2.92;;
54831;SDS011;40730;53.068;6.572;2023-08-20T00:36:50;10.43;;;2.33;;
54831;SDS011;40730;53.068;6.572;2023-08-20T00:39:16;6.45;;;2.97;;
54831;SDS011;40730;53.068;6.572;2023-08-20T00:41:42;13.85;;;3.88;;
54831;SDS011;40730;53.068;6.572;2023-08-20T00:44:07;11.02;;;3.38;;
54831;SDS011;40730;53.068;6.572;2023-08-20T00:46:33;12.25;;;3.30;;
54831;SDS011;40730;53.068;6.572;2023-08-20T00:48:59;9.80;;;3.42;;
54831;SDS011;40730;53.068;6.572;2023-08-20T00:51:24;9.35;;;3.55;;
54831;SDS011;40730;53.068;6.572;2023-08-20T00:53:50;10.20;;;3.58;;
54831;SDS011;40730;53.068;6.572;2023-08-20T00:56:16;7.55;;;3.05;;
54831;SDS011;40730;53.068;6.572;2023-08-20T00:58:42;6.72;;;3.50;;
54831;SDS011;40730;53.068;6.572;2023-08-20T01:01:09;11.60;;;3.58;;
54831;SDS011;40730;53.068;6.572;2023-08-20T01:03:35;7.95;;;3.55;;
54831;SDS011;40730;53.068;6.572;2023-08-20T01:06:04;13.48;;;3.20;;
54831;SDS011;40730;53.068;6.572;2023-08-20T01:08:47;7.55;;;2.90;;
54831;SDS011;40730;53.068;6.572;2023-08-20T01:11:26;11.40;;;3.22;;
54831;SDS011;40730;53.068;6.572;2023-08-20T01:13:58;15.93;;;4.78;;
54831;SDS011;40730;53.068;6.572;2023-08-20T01:16:26;9.15;;;3.83;;
54831;SDS011;40730;53.068;6.572;2023-08-20T01:18:51;10.40;;;4.20;;
54831;SDS011;40730;53.068;6.572;2023-08-20T01:21:37;16.25;;;4.93;;
54831;SDS011;40730;53.068;6.572;2023-08-20T01:24:20;13.60;;;4.10;;
54831;SDS011;40730;53.068;6.572;2023-08-20T01:27:08;12.25;;;4.15;;
54831;SDS011;40730;53.068;6.572;2023-08-20T01:30:00;10.55;;;4.25;;
54831;SDS011;40730;53.068;6.572;2023-08-20T01:32:28;19.55;;;6.28;;
54831;SDS011;40730;53.068;6.572;2023-08-20T01:34:54;16.75;;;6.20;;
54831;SDS011;40730;53.068;6.572;2023-08-20T01:37:20;13.50;;;4.53;;
54831;SDS011;40730;53.068;6.572;2023-08-20T01:39:45;8.38;;;3.15;;
54831;SDS011;40730;53.068;6.572;2023-08-20T01:42:11;11.40;;;4.40;;
54831;SDS011;40730;53.068;6.572;2023-08-20T01:44:37;5.65;;;3.72;;
54831;SDS011;40730;53.068;6.572;2023-08-20T01:47:02;12.75;;;4.20;;
54831;SDS011;40730;53.068;6.572;2023-08-20T01:49:28;14.40;;;6.18;;
54831;SDS011;40730;53.068;6.572;2023-08-20T01:51:54;13.88;;;6.10;;
54831;SDS011;40730;53.068;6.572;2023-08-20T01:54:19;11.50;;;5.25;;
54831;SDS011;40730;53.068;6.572;2023-08-20T01:56:45;13.05;;;6.43;;
54831;SDS011;40730;53.068;6.572;2023-08-20T01:59:11;17.58;;;6.78;;
54831;SDS011;40730;53.068;6.572;2023-08-20T02:01:37;13.63;;;5.72;;
54831;SDS011;40730;53.068;6.572;2023-08-20T02:04:03;1.88;;;1.48;;
54831;SDS011;40730;53.068;6.572;2023-08-20T02:06:29;6.47;;;1.88;;
54831;SDS011;40730;53.068;6.572;2023-08-20T02:08:54;3.50;;;1.08;;
54831;SDS011;40730;53.068;6.572;2023-08-20T02:11:20;6.90;;;1.95;;
54831;SDS011;40730;53.068;6.572;2023-08-20T02:13:45;4.07;;;2.70;;
54831;SDS011;40730;53.068;6.572;2023-08-20T02:16:11;3.88;;;2.40;;
54831;SDS011;40730;53.068;6.572;2023-08-20T02:18:37;6.03;;;2.13;;
54831;SDS011;40730;53.068;6.572;2023-08-20T02:21:02;8.13;;;2.88;;
54831;SDS011;40730;53.068;6.572;2023-08-20T02:23:28;6.40;;;2.70;;
54831;SDS011;40730;53.068;6.572;2023-08-20T02:25:54;5.72;;;2.60;;
54831;SDS011;40730;53.068;6.572;2023-08-20T02:28:19;4.00;;;1.48;;
54831;SDS011;40730;53.068;6.572;2023-08-20T02:30:45;8.27;;;2.63;;
54831;SDS011;40730;53.068;6.572;2023-08-20T02:33:12;8.48;;;5.68;;
54831;SDS011;40730;53.068;6.572;2023-08-20T02:35:38;13.73;;;7.40;;
54831;SDS011;40730;53.068;6.572;2023-08-20T02:38:04;15.82;;;7.90;;
54831;SDS011;40730;53.068;6.572;2023-08-20T02:40:31;15.85;;;8.45;;
54831;SDS011;40730;53.068;6.572;2023-08-20T02:42:56;18.50;;;9.23;;
54831;SDS011;40730;53.068;6.572;2023-08-20T02:45:22;23.98;;;11.25;;
54831;SDS011;40730;53.068;6.572;2023-08-20T02:47:48;23.52;;;12.40;;
54831;SDS011;40730;53.068;6.572;2023-08-20T02:50:14;26.27;;;11.70;;
54831;SDS011;40730;53.068;6.572;2023-08-20T02:52:41;22.45;;;13.20;;
54831;SDS011;40730;53.068;6.572;2023-08-20T02:55:07;25.75;;;11.73;;
54831;SDS011;40730;53.068;6.572;2023-08-20T02:57:33;28.92;;;12.63;;
54831;SDS011;40730;53.068;6.572;2023-08-20T02:59:59;22.90;;;13.05;;
54831;SDS011;40730;53.068;6.572;2023-08-20T03:02:24;20.27;;;11.80;;
54831;SDS011;40730;53.068;6.572;2023-08-20T03:04:50;25.20;;;11.55;;
54831;SDS011;40730;53.068;6.572;2023-08-20T03:07:16;22.55;;;12.38;;
54831;SDS011;40730;53.068;6.572;2023-08-20T03:09:41;22.98;;;11.60;;
54831;SDS011;40730;53.068;6.572;2023-08-20T03:12:07;14.77;;;9.95;;
54831;SDS011;40730;53.068;6.572;2023-08-20T03:14:33;17.42;;;10.15;;
54831;SDS011;40730;53.068;6.572;2023-08-20T03:16:58;16.52;;;10.57;;
54831;SDS011;40730;53.068;6.572;2023-08-20T03:19:24;19.30;;;10.40;;
54831;SDS011;40730;53.068;6.572;2023-08-20T03:21:50;13.93;;;8.77;;
54831;SDS011;40730;53.068;6.572;2023-08-20T03:24:15;16.73;;;8.30;;
54831;SDS011;40730;53.068;6.572;2023-08-20T03:26:41;14.25;;;9.75;;
54831;SDS011;40730;53.068;6.572;2023-08-20T03:29:07;11.45;;;7.10;;
54831;SDS011;40730;53.068;6.572;2023-08-20T03:31:32;17.00;;;7.40;;
54831;SDS011;40730;53.068;6.572;2023-08-20T03:33:58;11.88;;;7.40;;
54831;SDS011;40730;53.068;6.572;2023-08-20T03:36:23;13.30;;;7.72;;
54831;SDS011;40730;53.068;6.572;2023-08-20T03:38:49;17.77;;;9.85;;
54831;SDS011;40730;53.068;6.572;2023-08-20T03:41:15;16.48;;;8.27;;
54831;SDS011;40730;53.068;6.572;2023-08-20T03:43:40;14.13;;;7.50;;
54831;SDS011;40730;53.068;6.572;2023-08-20T03:46:06;14.00;;;8.25;;
54831;SDS011;40730;53.068;6.572;2023-08-20T03:48:31;12.65;;;7.78;;
54831;SDS011;40730;53.068;6.572;2023-08-20T03:50:57;24.15;;;9.98;;
54831;SDS011;40730;53.068;6.572;2023-08-20T03:53:23;17.33;;;9.25;;
54831;SDS011;40730;53.068;6.572;2023-08-20T03:55:48;17.88;;;10.25;;
54831;SDS011;40730;53.068;6.572;2023-08-20T03:58:14;15.32;;;10.10;;
54831;SDS011;40730;53.068;6.572;2023-08-20T04:00:40;20.98;;;11.02;;
54831;SDS011;40730;53.068;6.572;2023-08-20T04:03:06;15.85;;;8.45;;
54831;SDS011;40730;53.068;6.572;2023-08-20T04:05:38;16.30;;;8.65;;
54831;SDS011;40730;53.068;6.572;2023-08-20T04:08:04;20.52;;;9.90;;
54831;SDS011;40730;53.068;6.572;2023-08-20T04:10:30;15.73;;;9.10;;
54831;SDS011;40730;53.068;6.572;2023-08-20T04:12:56;15.13;;;8.65;;
54831;SDS011;40730;53.068;6.572;2023-08-20T04:15:23;20.92;;;10.65;;
54831;SDS011;40730;53.068;6.572;2023-08-20T04:17:49;15.88;;;9.68;;
54831;SDS011;40730;53.068;6.572;2023-08-20T04:20:14;18.20;;;10.60;;
54831;SDS011;40730;53.068;6.572;2023-08-20T04:22:40;15.98;;;8.80;;
54831;SDS011;40730;53.068;6.572;2023-08-20T04:25:07;16.27;;;9.70;;
54831;SDS011;40730;53.068;6.572;2023-08-20T04:27:33;15.88;;;9.43;;
54831;SDS011;40730;53.068;6.572;2023-08-20T04:29:59;8.93;;;7.05;;
54831;SDS011;40730;53.068;6.572;2023-08-20T04:32:24;11.80;;;7.40;;
54831;SDS011;40730;53.068;6.572;2023-08-20T04:34:50;13.35;;;7.15;;
54831;SDS011;40730;53.068;6.572;2023-08-20T04:37:18;13.10;;;6.97;;
54831;SDS011;40730;53.068;6.572;2023-08-20T04:39:44;10.15;;;6.97;;
54831;SDS011;40730;53.068;6.572;2023-08-20T04:42:10;11.07;;;6.05;;
54831;SDS011;40730;53.068;6.572;2023-08-20T04:44:35;11.15;;;7.20;;
54831;SDS011;40730;53.068;6.572;2023-08-20T04:47:01;10.38;;;8.32;;
54831;SDS011;40730;53.068;6.572;2023-08-20T04:49:27;7.47;;;4.55;;
54831;SDS011;40730;53.068;6.572;2023-08-20T04:51:54;15.63;;;6.40;;
54831;SDS011;40730;53.068;6.572;2023-08-20T04:54:20;7.63;;;5.10;;
54831;SDS011;40730;53.068;6.572;2023-08-20T04:56:45;15.23;;;9.88;;
54831;SDS011;40730;53.068;6.572;2023-08-20T04:59:11;19.10;;;8.90;;
54831;SDS011;40730;53.068;6.572;2023-08-20T05:01:37;14.95;;;8.65;;
54831;SDS011;40730;53.068;6.572;2023-08-20T05:04:03;18.42;;;8.55;;
54831;SDS011;40730;53.068;6.572;2023-08-20T05:06:29;14.43;;;6.40;;
54831;SDS011;40730;53.068;6.572;2023-08-20T05:08:55;14.95;;;7.43;;
54831;SDS011;40730;53.068;6.572;2023-08-20T05:11:20;8.90;;;5.00;;
54831;SDS011;40730;53.068;6.572;2023-08-20T05:13:47;5.55;;;4.15;;
54831;SDS011;40730;53.068;6.572;2023-08-20T05:16:14;5.72;;;4.72;;
54831;SDS011;40730;53.068;6.572;2023-08-20T05:18:40;11.32;;;6.47;;
54831;SDS011;40730;53.068;6.572;2023-08-20T05:21:05;9.30;;;5.63;;
54831;SDS011;40730;53.068;6.572;2023-08-20T05:23:31;10.23;;;7.15;;
54831;SDS011;40730;53.068;6.572;2023-08-20T05:25:56;11.63;;;6.72;;
54831;SDS011;40730;53.068;6.572;2023-08-20T05:28:22;16.60;;;8.30;;
54831;SDS011;40730;53.068;6.572;2023-08-20T05:30:57;10.63;;;6.60;;
54831;SDS011;40730;53.068;6.572;2023-08-20T05:33:23;12.20;;;7.13;;
54831;SDS011;40730;53.068;6.572;2023-08-20T05:35:49;13.13;;;8.75;;
54831;SDS011;40730;53.068;6.572;2023-08-20T05:38:14;16.23;;;9.13;;
54831;SDS011;40730;53.068;6.572;2023-08-20T05:40:40;17.98;;;9.68;;
54831;SDS011;40730;53.068;6.572;2023-08-20T05:43:06;12.98;;;9.48;;
54831;SDS011;40730;53.068;6.572;2023-08-20T05:45:32;16.77;;;9.93;;
54831;SDS011;40730;53.068;6.572;2023-08-20T05:47:57;23.98;;;10.57;;
54831;SDS011;40730;53.068;6.572;2023-08-20T05:50:23;14.68;;;9.68;;
54831;SDS011;40730;53.068;6.572;2023-08-20T05:52:49;16.77;;;9.25;;
54831;SDS011;40730;53.068;6.572;2023-08-20T05:55:14;13.10;;;8.18;;
54831;SDS011;40730;53.068;6.572;2023-08-20T05:57:40;16.33;;;9.10;;
54831;SDS011;40730;53.068;6.572;2023-08-20T06:00:08;25.50;;;12.20;;
54831;SDS011;40730;53.068;6.572;2023-08-20T06:02:34;18.38;;;9.43;;
54831;SDS011;40730;53.068;6.572;2023-08-20T06:05:00;15.65;;;9.65;;
54831;SDS011;40730;53.068;6.572;2023-08-20T06:07:26;15.77;;;9.07;;
54831;SDS011;40730;53.068;6.572;2023-08-20T06:09:51;15.77;;;8.88;;
54831;SDS011;40730;53.068;6.572;2023-08-20T06:12:17;22.75;;;8.07;;
54831;SDS011;40730;53.068;6.572;2023-08-20T06:14:43;15.55;;;7.68;;
54831;SDS011;40730;53.068;6.572;2023-08-20T06:17:08;13.85;;;8.23;;
54831;SDS011;40730;53.068;6.572;2023-08-20T06:19:34;16.90;;;7.63;;
54831;SDS011;40730;53.068;6.572;2023-08-20T06:22:00;14.73;;;7.28;;
54831;SDS011;40730;53.068;6.572;2023-08-20T06:24:25;15.60;;;7.38;;
54831;SDS011;40730;53.068;6.572;2023-08-20T06:26:51;11.40;;;7.38;;
54831;SDS011;40730;53.068;6.572;2023-08-20T06:29:17;14.90;;;7.13;;
54831;SDS011;40730;53.068;6.572;2023-08-20T06:31:43;13.13;;;7.00;;
54831;SDS011;40730;53.068;6.572;2023-08-20T06:34:08;12.43;;;6.18;;
54831;SDS011;40730;53.068;6.572;2023-08-20T06:36:34;13.43;;;7.03;;
54831;SDS011;40730;53.068;6.572;2023-08-20T06:39:00;14.60;;;7.22;;
54831;SDS011;40730;53.068;6.572;2023-08-20T06:41:26;12.45;;;5.53;;
54831;SDS011;40730;53.068;6.572;2023-08-20T06:43:52;14.30;;;6.30;;
54831;SDS011;40730;53.068;6.572;2023-08-20T06:46:18;18.30;;;5.93;;
54831;SDS011;40730;53.068;6.572;2023-08-20T06:48:43;11.65;;;5.80;;
54831;SDS011;40730;53.068;6.572;2023-08-20T06:51:12;11.20;;;5.45;;
54831;SDS011;40730;53.068;6.572;2023-08-20T06:53:39;9.73;;;5.40;;
54831;SDS011;40730;53.068;6.572;2023-08-20T06:56:06;8.27;;;4.25;;
54831;SDS011;40730;53.068;6.572;2023-08-20T06:58:33;12.43;;;4.90;;
54831;SDS011;40730;53.068;6.572;2023-08-20T07:00:59;10.05;;;4.47;;
54831;SDS011;40730;53.068;6.572;2023-08-20T07:03:41;9.00;;;4.75;;
54831;SDS011;40730;53.068;6.572;2023-08-20T07:06:09;11.63;;;3.88;;
54831;SDS011;40730;53.068;6.572;2023-08-20T07:08:35;9.95;;;3.22;;
54831;SDS011;40730;53.068;6.572;2023-08-20T07:11:03;9.75;;;3.60;;
54831;SDS011;40730;53.068;6.572;2023-08-20T07:13:29;8.63;;;3.30;;
54831;SDS011;40730;53.068;6.572;2023-08-20T07:15:55;9.20;;;3.28;;
54831;SDS011;40730;53.068;6.572;2023-08-20T07:18:21;11.63;;;3.63;;
54831;SDS011;40730;53.068;6.572;2023-08-20T07:20:46;12.10;;;3.38;;
54831;SDS011;40730;53.068;6.572;2023-08-20T07:23:12;14.50;;;3.40;;
54831;SDS011;40730;53.068;6.572;2023-08-20T07:25:38;13.80;;;3.65;;
54831;SDS011;40730;53.068;6.572;2023-08-20T07:28:05;13.82;;;3.30;;
54831;SDS011;40730;53.068;6.572;2023-08-20T07:30:32;12.23;;;2.78;;
54831;SDS011;40730;53.068;6.572;2023-08-20T07:32:58;8.00;;;2.08;;
54831;SDS011;40730;53.068;6.572;2023-08-20T07:35:24;9.93;;;2.13;;
54831;SDS011;40730;53.068;6.572;2023-08-20T07:37:50;8.77;;;2.20;;
54831;SDS011;40730;53.068;6.572;2023-08-20T07:40:15;11.00;;;2.45;;
54831;SDS011;40730;53.068;6.572;2023-08-20T07:42:41;16.67;;;2.58;;
54831;SDS011;40730;53.068;6.572;2023-08-20T07:45:08;5.15;;;1.63;;
54831;SDS011;40730;53.068;6.572;2023-08-20T07:47:35;7.22;;;1.70;;
54831;SDS011;40730;53.068;6.572;2023-08-20T07:50:04;10.95;;;1.90;;
54831;SDS011;40730;53.068;6.572;2023-08-20T07:52:31;11.30;;;1.95;;
54831;SDS011;40730;53.068;6.572;2023-08-20T07:54:57;10.93;;;1.90;;
54831;SDS011;40730;53.068;6.572;2023-08-20T07:57:23;9.68;;;1.17;;
54831;SDS011;40730;53.068;6.572;2023-08-20T07:59:52;15.05;;;2.20;;
54831;SDS011;40730;53.068;6.572;2023-08-20T08:02:17;11.95;;;1.50;;
54831;SDS011;40730;53.068;6.572;2023-08-20T08:04:43;11.60;;;1.70;;
54831;SDS011;40730;53.068;6.572;2023-08-20T08:07:09;7.78;;;1.13;;
54831;SDS011;40730;53.068;6.572;2023-08-20T08:09:36;10.35;;;1.75;;
54831;SDS011;40730;53.068;6.572;2023-08-20T08:12:02;9.65;;;1.02;;
54831;SDS011;40730;53.068;6.572;2023-08-20T08:14:28;9.32;;;1.20;;
54831;SDS011;40730;53.068;6.572;2023-08-20T08:16:54;7.53;;;1.30;;
54831;SDS011;40730;53.068;6.572;2023-08-20T08:19:20;10.50;;;1.60;;
54831;SDS011;40730;53.068;6.572;2023-08-20T08:21:45;11.55;;;1.35;;
54831;SDS011;40730;53.068;6.572;2023-08-20T08:24:12;11.05;;;1.20;;
54831;SDS011;40730;53.068;6.572;2023-08-20T08:26:38;7.25;;;1.17;;
54831;SDS011;40730;53.068;6.572;2023-08-20T08:29:04;8.48;;;1.05;;
54831;SDS011;40730;53.068;6.572;2023-08-20T08:31:31;7.20;;;1.25;;
54831;SDS011;40730;53.068;6.572;2023-08-20T08:33:57;5.57;;;0.63;;
54831;SDS011;40730;53.068;6.572;2023-08-20T08:36:23;6.00;;;0.63;;
54831;SDS011;40730;53.068;6.572;2023-08-20T08:38:51;5.90;;;0.68;;
54831;SDS011;40730;53.068;6.572;2023-08-20T08:41:17;7.15;;;0.40;;
54831;SDS011;40730;53.068;6.572;2023-08-20T08:43:47;10.00;;;0.80;;
54831;SDS011;40730;53.068;6.572;2023-08-20T08:46:14;10.68;;;1.13;;
54831;SDS011;40730;53.068;6.572;2023-08-20T08:48:41;7.07;;;0.68;;
54831;SDS011;40730;53.068;6.572;2023-08-20T08:51:08;5.40;;;0.60;;
54831;SDS011;40730;53.068;6.572;2023-08-20T08:53:34;8.23;;;0.70;;
54831;SDS011;40730;53.068;6.572;2023-08-20T08:56:00;7.18;;;0.90;;
54831;SDS011;40730;53.068;6.572;2023-08-20T08:58:28;6.85;;;0.50;;
54831;SDS011;40730;53.068;6.572;2023-08-20T09:00:54;6.32;;;0.50;;
54831;SDS011;40730;53.068;6.572;2023-08-20T09:03:20;6.57;;;0.55;;
54831;SDS011;40730;53.068;6.572;2023-08-20T09:05:49;6.82;;;0.57;;
54831;SDS011;40730;53.068;6.572;2023-08-20T09:08:20;4.88;;;0.40;;
54831;SDS011;40730;53.068;6.572;2023-08-20T09:10:56;5.05;;;0.60;;
54831;SDS011;40730;53.068;6.572;2023-08-20T09:13:32;6.18;;;0.80;;
54831;SDS011;40730;53.068;6.572;2023-08-20T09:16:06;5.70;;;0.63;;
54831;SDS011;40730;53.068;6.572;2023-08-20T09:18:37;4.68;;;0.75;;
54831;SDS011;40730;53.068;6.572;2023-08-20T09:21:06;7.68;;;0.88;;
54831;SDS011;40730;53.068;6.572;2023-08-20T09:23:37;3.75;;;0.52;;
54831;SDS011;40730;53.068;6.572;2023-08-20T09:26:04;9.80;;;1.25;;
54831;SDS011;40730;53.068;6.572;2023-08-20T09:28:44;3.92;;;0.40;;
54831;SDS011;40730;53.068;6.572;2023-08-20T09:31:11;5.30;;;0.47;;
54831;SDS011;40730;53.068;6.572;2023-08-20T09:33:37;5.10;;;0.50;;
54831;SDS011;40730;53.068;6.572;2023-08-20T09:36:17;5.60;;;0.55;;
54831;SDS011;40730;53.068;6.572;2023-08-20T09:38:43;5.28;;;0.77;;
54831;SDS011;40730;53.068;6.572;2023-08-20T09:41:09;4.13;;;0.47;;
54831;SDS011;40730;53.068;6.572;2023-08-20T09:43:37;7.00;;;0.50;;
54831;SDS011;40730;53.068;6.572;2023-08-20T09:46:04;4.57;;;0.47;;
54831;SDS011;40730;53.068;6.572;2023-08-20T09:48:34;8.82;;;0.50;;
54831;SDS011;40730;53.068;6.572;2023-08-20T09:51:08;6.22;;;0.70;;
54831;SDS011;40730;53.068;6.572;2023-08-20T09:53:48;5.30;;;0.40;;
54831;SDS011;40730;53.068;6.572;2023-08-20T09:56:21;5.88;;;0.40;;
54831;SDS011;40730;53.068;6.572;2023-08-20T09:58:52;5.20;;;0.32;;
54831;SDS011;40730;53.068;6.572;2023-08-20T10:01:19;6.32;;;1.48;;
54831;SDS011;40730;53.068;6.572;2023-08-20T10:03:45;6.25;;;0.45;;
54831;SDS011;40730;53.068;6.572;2023-08-20T10:06:11;6.50;;;0.80;;
54831;SDS011;40730;53.068;6.572;2023-08-20T10:08:36;7.40;;;0.70;;
54831;SDS011;40730;53.068;6.572;2023-08-20T10:11:03;4.35;;;0.60;;
54831;SDS011;40730;53.068;6.572;2023-08-20T10:13:29;8.20;;;0.70;;
54831;SDS011;40730;53.068;6.572;2023-08-20T10:15:55;7.43;;;0.50;;
54831;SDS011;40730;53.068;6.572;2023-08-20T10:18:21;5.50;;;0.68;;
54831;SDS011;40730;53.068;6.572;2023-08-20T10:20:50;3.75;;;0.38;;
54831;SDS011;40730;53.068;6.572;2023-08-20T10:23:19;5.85;;;0.38;;
54831;SDS011;40730;53.068;6.572;2023-08-20T10:25:48;4.50;;;0.40;;
54831;SDS011;40730;53.068;6.572;2023-08-20T10:28:21;3.15;;;0.68;;
54831;SDS011;40730;53.068;6.572;2023-08-20T10:33:33;4.32;;;0.52;;
54831;SDS011;40730;53.068;6.572;2023-08-20T10:38:48;8.90;;;0.63;;
54831;SDS011;40730;53.068;6.572;2023-08-20T10:41:15;6.60;;;1.02;;
54831;SDS011;40730;53.068;6.572;2023-08-20T10:43:47;3.60;;;0.63;;
54831;SDS011;40730;53.068;6.572;2023-08-20T10:48:53;4.45;;;0.52;;
54831;SDS011;40730;53.068;6.572;2023-08-20T10:51:37;7.22;;;0.63;;
54831;SDS011;40730;53.068;6.572;2023-08-20T10:56:38;6.72;;;1.00;;
54831;SDS011;40730;53.068;6.572;2023-08-20T10:59:27;4.63;;;1.02;;
54831;SDS011;40730;53.068;6.572;2023-08-20T11:01:55;4.07;;;0.65;;
54831;SDS011;40730;53.068;6.572;2023-08-20T11:04:23;2.88;;;0.30;;
54831;SDS011;40730;53.068;6.572;2023-08-20T11:06:53;3.53;;;0.30;;
54831;SDS011;40730;53.068;6.572;2023-08-20T11:09:25;3.85;;;0.40;;
54831;SDS011;40730;53.068;6.572;2023-08-20T11:11:54;5.45;;;0.35;;
54831;SDS011;40730;53.068;6.572;2023-08-20T11:14:20;5.15;;;0.30;;
54831;SDS011;40730;53.068;6.572;2023-08-20T11:16:47;2.42;;;0.20;;
54831;SDS011;40730;53.068;6.572;2023-08-20T11:19:13;5.70;;;0.63;;
54831;SDS011;40730;53.068;6.572;2023-08-20T11:21:40;6.13;;;0.63;;
54831;SDS011;40730;53.068;6.572;2023-08-20T11:24:08;4.13;;;0.28;;
54831;SDS011;40730;53.068;6.572;2023-08-20T11:26:34;3.47;;;0.30;;
54831;SDS011;40730;53.068;6.572;2023-08-20T11:29:01;3.55;;;0.60;;
54831;SDS011;40730;53.068;6.572;2023-08-20T11:31:31;4.68;;;0.35;;
54831;SDS011;40730;53.068;6.572;2023-08-20T11:33:56;4.07;;;0.30;;
54831;SDS011;40730;53.068;6.572;2023-08-20T11:36:22;5.65;;;0.30;;
54831;SDS011;40730;53.068;6.572;2023-08-20T11:38:49;3.13;;;0.30;;
54831;SDS011;40730;53.068;6.572;2023-08-20T11:41:17;4.20;;;0.40;;
54831;SDS011;40730;53.068;6.572;2023-08-20T11:43:43;7.22;;;1.52;;
54831;SDS011;40730;53.068;6.572;2023-08-20T11:46:12;5.63;;;0.40;;
54831;SDS011;40730;53.068;6.572;2023-08-20T11:51:28;2.88;;;0.52;;
54831;SDS011;40730;53.068;6.572;2023-08-20T11:54:00;3.00;;;0.20;;
54831;SDS011;40730;53.068;6.572;2023-08-20T11:56:26;3.80;;;0.50;;
54831;SDS011;40730;53.068;6.572;2023-08-20T11:58:52;3.53;;;0.38;;
54831;SDS011;40730;53.068;6.572;2023-08-20T12:01:18;5.20;;;0.40;;
54831;SDS011;40730;53.068;6.572;2023-08-20T12:03:44;5.30;;;0.35;;
54831;SDS011;40730;53.068;6.572;2023-08-20T12:06:20;4.40;;;0.60;;
54831;SDS011;40730;53.068;6.572;2023-08-20T12:08:47;2.50;;;0.40;;
54831;SDS011;40730;53.068;6.572;2023-08-20T12:11:13;2.30;;;0.20;;
54831;SDS011;40730;53.068;6.572;2023-08-20T12:13:40;1.70;;;0.20;;
54831;SDS011;40730;53.068;6.572;2023-08-20T12:16:05;3.33;;;0.30;;
54831;SDS011;40730;53.068;6.572;2023-08-20T12:18:32;2.25;;;0.20;;
54831;SDS011;40730;53.068;6.572;2023-08-20T12:20:57;2.70;;;0.30;;
54831;SDS011;40730;53.068;6.572;2023-08-20T12:23:23;2.53;;;0.20;;
54831;SDS011;40730;53.068;6.572;2023-08-20T12:25:52;4.78;;;0.20;;
54831;SDS011;40730;53.068;6.572;2023-08-20T12:28:17;2.38;;;0.30;;
54831;SDS011;40730;53.068;6.572;2023-08-20T12:30:43;2.33;;;0.20;;
54831;SDS011;40730;53.068;6.572;2023-08-20T12:33:10;3.28;;;0.63;;
54831;SDS011;40730;53.068;6.572;2023-08-20T12:35:36;3.58;;;0.20;;
54831;SDS011;40730;53.068;6.572;2023-08-20T12:38:02;4.00;;;0.50;;
54831;SDS011;40730;53.068;6.572;2023-08-20T12:40:28;3.83;;;0.20;;
54831;SDS011;40730;53.068;6.572;2023-08-20T12:42:54;5.15;;;0.20;;
54831;SDS011;40730;53.068;6.572;2023-08-20T12:45:20;3.13;;;0.52;;
54831;SDS011;40730;53.068;6.572;2023-08-20T12:47:46;3.97;;;0.30;;
54831;SDS011;40730;53.068;6.572;2023-08-20T12:50:11;5.68;;;0.52;;
54831;SDS011;40730;53.068;6.572;2023-08-20T12:52:39;5.03;;;0.45;;
54831;SDS011;40730;53.068;6.572;2023-08-20T12:55:05;3.72;;;0.40;;
54831;SDS011;40730;53.068;6.572;2023-08-20T12:57:34;3.80;;;0.40;;
54831;SDS011;40730;53.068;6.572;2023-08-20T13:00:00;3.33;;;0.20;;
54831;SDS011;40730;53.068;6.572;2023-08-20T13:02:32;4.82;;;0.30;;
54831;SDS011;40730;53.068;6.572;2023-08-20T13:04:58;4.05;;;0.70;;
54831;SDS011;40730;53.068;6.572;2023-08-20T13:07:23;6.07;;;0.40;;
54831;SDS011;40730;53.068;6.572;2023-08-20T13:09:49;4.05;;;0.65;;
54831;SDS011;40730;53.068;6.572;2023-08-20T13:12:15;2.85;;;0.30;;
54831;SDS011;40730;53.068;6.572;2023-08-20T13:14:43;4.15;;;0.30;;
54831;SDS011;40730;53.068;6.572;2023-08-20T13:17:09;4.13;;;0.30;;
54831;SDS011;40730;53.068;6.572;2023-08-20T13:19:35;4.38;;;0.30;;
54831;SDS011;40730;53.068;6.572;2023-08-20T13:22:01;3.05;;;0.28;;
54831;SDS011;40730;53.068;6.572;2023-08-20T13:24:26;3.35;;;0.32;;
54831;SDS011;40730;53.068;6.572;2023-08-20T13:26:52;2.38;;;0.20;;
54831;SDS011;40730;53.068;6.572;2023-08-20T13:29:18;4.68;;;0.30;;
54831;SDS011;40730;53.068;6.572;2023-08-20T13:31:43;1.77;;;0.30;;
54831;SDS011;40730;53.068;6.572;2023-08-20T13:34:09;2.45;;;0.20;;
54831;SDS011;40730;53.068;6.572;2023-08-20T13:36:34;2.83;;;0.30;;
54831;SDS011;40730;53.068;6.572;2023-08-20T13:39:00;3.75;;;0.20;;
54831;SDS011;40730;53.068;6.572;2023-08-20T13:41:27;2.88;;;0.32;;
54831;SDS011;40730;53.068;6.572;2023-08-20T13:43:52;6.50;;;0.50;;
54831;SDS011;40730;53.068;6.572;2023-08-20T13:46:18;2.45;;;0.25;;
54831;SDS011;40730;53.068;6.572;2023-08-20T13:48:44;2.20;;;0.30;;
54831;SDS011;40730;53.068;6.572;2023-08-20T13:51:09;3.35;;;0.30;;
54831;SDS011;40730;53.068;6.572;2023-08-20T13:53:35;2.42;;;0.20;;
54831;SDS011;40730;53.068;6.572;2023-08-20T13:56:00;3.17;;;0.45;;
54831;SDS011;40730;53.068;6.572;2023-08-20T13:58:27;5.15;;;0.40;;
54831;SDS011;40730;53.068;6.572;2023-08-20T14:00:52;7.18;;;1.25;;
54831;SDS011;40730;53.068;6.572;2023-08-20T14:03:18;4.88;;;0.30;;
54831;SDS011;40730;53.068;6.572;2023-08-20T14:05:43;3.22;;;0.35;;
54831;SDS011;40730;53.068;6.572;2023-08-20T14:08:10;4.57;;;0.50;;
54831;SDS011;40730;53.068;6.572;2023-08-20T14:10:36;2.22;;;0.20;;
54831;SDS011;40730;53.068;6.572;2023-08-20T14:13:02;4.30;;;0.35;;
54831;SDS011;40730;53.068;6.572;2023-08-20T14:15:28;3.13;;;0.32;;
54831;SDS011;40730;53.068;6.572;2023-08-20T14:17:53;4.63;;;0.40;;
54831;SDS011;40730;53.068;6.572;2023-08-20T14:20:19;3.92;;;0.40;;
54831;SDS011;40730;53.068;6.572;2023-08-20T14:22:45;3.67;;;0.40;;
54831;SDS011;40730;53.068;6.572;2023-08-20T14:25:10;4.85;;;0.40;;
54831;SDS011;40730;53.068;6.572;2023-08-20T14:27:36;5.50;;;0.30;;
54831;SDS011;40730;53.068;6.572;2023-08-20T14:30:01;2.00;;;0.20;;
54831;SDS011;40730;53.068;6.572;2023-08-20T14:32:27;6.03;;;0.40;;
54831;SDS011;40730;53.068;6.572;2023-08-20T14:34:53;3.08;;;0.20;;
54831;SDS011;40730;53.068;6.572;2023-08-20T14:37:19;4.07;;;0.30;;
54831;SDS011;40730;53.068;6.572;2023-08-20T14:39:45;4.30;;;0.47;;
54831;SDS011;40730;53.068;6.572;2023-08-20T14:42:11;2.47;;;0.20;;
54831;SDS011;40730;53.068;6.572;2023-08-20T14:44:36;3.15;;;0.28;;
54831;SDS011;40730;53.068;6.572;2023-08-20T14:47:03;4.25;;;0.30;;
54831;SDS011;40730;53.068;6.572;2023-08-20T14:49:29;4.55;;;0.40;;
54831;SDS011;40730;53.068;6.572;2023-08-20T14:51:55;3.70;;;0.28;;
54831;SDS011;40730;53.068;6.572;2023-08-20T14:54:21;6.65;;;0.25;;
54831;SDS011;40730;53.068;6.572;2023-08-20T14:56:47;2.15;;;0.75;;
54831;SDS011;40730;53.068;6.572;2023-08-20T14:59:12;1.35;;;0.10;;